sensor_id;sensor_type;location;lat;lon;timestamp;temperature;humidity
26503;DHT22;14177;51.520;6.764;2024-01-30T00:00:34;9.00;99.90
26503;DHT22;14177;51.520;6.764;2024-01-30T00:03:07;8.90;99.90
26503;DHT22;14177;51.520;6.764;2024-01-30T00:05:36;8.90;99.90
26503;DHT22;14177;51.520;6.764;2024-01-30T00:08:06;8.90;99.90
26503;DHT22;14177;51.520;6.764;2024-01-30T00:10:33;8.80;99.90
26503;DHT22;14177;51.520;6.764;2024-01-30T00:13:06;8.80;99.90
26503;DHT22;14177;51.520;6.764;2024-01-30T00:15:34;8.80;99.90
26503;DHT22;14177;51.520;6.764;2024-01-30T00:18:01;8.70;99.90
26503;DHT22;14177;51.520;6.764;2024-01-30T00:20:28;8.70;99.90
26503;DHT22;14177;51.520;6.764;2024-01-30T00:22:55;8.70;99.90
26503;DHT22;14177;51.520;6.764;2024-01-30T00:25:22;8.70;99.90
26503;DHT22;14177;51.520;6.764;2024-01-30T00:27:57;8.70;99.90
26503;DHT22;14177;51.520;6.764;2024-01-30T00:30:30;8.70;99.90
26503;DHT22;14177;51.520;6.764;2024-01-30T00:32:59;8.70;99.90
26503;DHT22;14177;51.520;6.764;2024-01-30T00:35:29;8.70;99.90
26503;DHT22;14177;51.520;6.764;2024-01-30T00:38:00;8.70;99.90
26503;DHT22;14177;51.520;6.764;2024-01-30T00:40:27;8.70;99.90
26503;DHT22;14177;51.520;6.764;2024-01-30T00:42:55;8.70;99.90
26503;DHT22;14177;51.520;6.764;2024-01-30T00:45:25;8.80;99.90
26503;DHT22;14177;51.520;6.764;2024-01-30T00:48:19;8.70;99.90
26503;DHT22;14177;51.520;6.764;2024-01-30T00:50:46;8.80;99.90
26503;DHT22;14177;51.520;6.764;2024-01-30T00:53:13;8.80;99.90
26503;DHT22;14177;51.520;6.764;2024-01-30T00:55:39;8.80;99.90
26503;DHT22;14177;51.520;6.764;2024-01-30T00:58:06;8.90;99.90
26503;DHT22;14177;51.520;6.764;2024-01-30T01:00:33;8.90;99.90
26503;DHT22;14177;51.520;6.764;2024-01-30T01:03:01;8.90;99.90
26503;DHT22;14177;51.520;6.764;2024-01-30T01:05:28;8.90;99.90
26503;DHT22;14177;51.520;6.764;2024-01-30T01:07:56;8.90;99.90
26503;DHT22;14177;51.520;6.764;2024-01-30T01:10:25;8.90;99.90
26503;DHT22;14177;51.520;6.764;2024-01-30T01:12:52;8.90;99.90
26503;DHT22;14177;51.520;6.764;2024-01-30T01:15:25;8.90;99.90
26503;DHT22;14177;51.520;6.764;2024-01-30T01:17:56;8.90;99.90
26503;DHT22;14177;51.520;6.764;2024-01-30T01:20:23;8.90;99.90
26503;DHT22;14177;51.520;6.764;2024-01-30T01:22:53;8.90;99.90
26503;DHT22;14177;51.520;6.764;2024-01-30T01:25:20;8.90;99.90
26503;DHT22;14177;51.520;6.764;2024-01-30T01:27:49;8.90;99.90
26503;DHT22;14177;51.520;6.764;2024-01-30T01:30:19;8.90;99.90
26503;DHT22;14177;51.520;6.764;2024-01-30T01:32:49;8.90;99.90
26503;DHT22;14177;51.520;6.764;2024-01-30T01:35:27;8.90;99.90
26503;DHT22;14177;51.520;6.764;2024-01-30T01:38:02;8.90;99.90
26503;DHT22;14177;51.520;6.764;2024-01-30T01:40:32;8.90;99.90
26503;DHT22;14177;51.520;6.764;2024-01-30T01:43:05;8.90;99.90
26503;DHT22;14177;51.520;6.764;2024-01-30T01:45:35;8.90;99.90
26503;DHT22;14177;51.520;6.764;2024-01-30T01:48:03;8.90;99.90
26503;DHT22;14177;51.520;6.764;2024-01-30T01:50:30;8.80;99.90
26503;DHT22;14177;51.520;6.764;2024-01-30T01:53:08;8.90;99.90
26503;DHT22;14177;51.520;6.764;2024-01-30T01:55:35;8.90;99.90
26503;DHT22;14177;51.520;6.764;2024-01-30T01:58:04;8.90;99.90
26503;DHT22;14177;51.520;6.764;2024-01-30T02:00:35;8.90;99.90
26503;DHT22;14177;51.520;6.764;2024-01-30T02:03:10;8.80;99.90
26503;DHT22;14177;51.520;6.764;2024-01-30T02:05:42;8.80;99.90
26503;DHT22;14177;51.520;6.764;2024-01-30T02:08:15;8.80;99.90
26503;DHT22;14177;51.520;6.764;2024-01-30T02:10:47;8.80;99.90
26503;DHT22;14177;51.520;6.764;2024-01-30T02:13:21;8.80;99.90
26503;DHT22;14177;51.520;6.764;2024-01-30T02:15:49;8.70;99.90
26503;DHT22;14177;51.520;6.764;2024-01-30T02:18:18;8.70;99.90
26503;DHT22;14177;51.520;6.764;2024-01-30T02:20:53;8.70;99.90
26503;DHT22;14177;51.520;6.764;2024-01-30T02:23:30;8.70;99.90
26503;DHT22;14177;51.520;6.764;2024-01-30T02:26:07;8.70;99.90
26503;DHT22;14177;51.520;6.764;2024-01-30T02:28:43;8.70;99.90
26503;DHT22;14177;51.520;6.764;2024-01-30T02:31:10;8.70;99.90
26503;DHT22;14177;51.520;6.764;2024-01-30T02:33:46;8.60;99.90
26503;DHT22;14177;51.520;6.764;2024-01-30T02:36:13;8.70;99.90
26503;DHT22;14177;51.520;6.764;2024-01-30T02:38:50;8.70;99.90
26503;DHT22;14177;51.520;6.764;2024-01-30T02:41:17;8.60;99.90
26503;DHT22;14177;51.520;6.764;2024-01-30T02:43:47;8.70;99.90
26503;DHT22;14177;51.520;6.764;2024-01-30T02:46:15;8.60;99.90
26503;DHT22;14177;51.520;6.764;2024-01-30T02:48:42;8.60;99.90
26503;DHT22;14177;51.520;6.764;2024-01-30T02:51:12;8.60;99.90
26503;DHT22;14177;51.520;6.764;2024-01-30T02:53:39;8.60;99.90
26503;DHT22;14177;51.520;6.764;2024-01-30T02:56:09;8.60;99.90
26503;DHT22;14177;51.520;6.764;2024-01-30T02:58:39;8.60;99.90
26503;DHT22;14177;51.520;6.764;2024-01-30T03:01:07;8.50;99.90
26503;DHT22;14177;51.520;6.764;2024-01-30T03:03:41;8.50;99.90
26503;DHT22;14177;51.520;6.764;2024-01-30T03:06:10;8.50;99.90
26503;DHT22;14177;51.520;6.764;2024-01-30T03:08:37;8.50;99.90
26503;DHT22;14177;51.520;6.764;2024-01-30T03:11:04;8.50;99.90
26503;DHT22;14177;51.520;6.764;2024-01-30T03:13:33;8.50;99.90
26503;DHT22;14177;51.520;6.764;2024-01-30T03:16:02;8.50;99.90
26503;DHT22;14177;51.520;6.764;2024-01-30T03:18:30;8.50;99.90
26503;DHT22;14177;51.520;6.764;2024-01-30T03:21:01;8.50;99.90
26503;DHT22;14177;51.520;6.764;2024-01-30T03:23:31;8.40;99.90
26503;DHT22;14177;51.520;6.764;2024-01-30T03:25:59;8.40;99.90
26503;DHT22;14177;51.520;6.764;2024-01-30T03:28:26;8.40;99.90
26503;DHT22;14177;51.520;6.764;2024-01-30T03:31:15;8.40;99.90
26503;DHT22;14177;51.520;6.764;2024-01-30T03:33:42;8.40;99.90
26503;DHT22;14177;51.520;6.764;2024-01-30T03:36:17;8.50;99.90
26503;DHT22;14177;51.520;6.764;2024-01-30T03:38:51;8.50;99.90
26503;DHT22;14177;51.520;6.764;2024-01-30T03:41:24;8.50;99.90
26503;DHT22;14177;51.520;6.764;2024-01-30T03:43:53;8.50;99.90
26503;DHT22;14177;51.520;6.764;2024-01-30T03:46:26;8.50;99.90
26503;DHT22;14177;51.520;6.764;2024-01-30T03:48:55;8.50;99.90
26503;DHT22;14177;51.520;6.764;2024-01-30T03:51:28;8.50;99.90
26503;DHT22;14177;51.520;6.764;2024-01-30T03:53:55;8.50;99.90
26503;DHT22;14177;51.520;6.764;2024-01-30T03:56:26;8.40;99.90
26503;DHT22;14177;51.520;6.764;2024-01-30T03:58:56;8.40;99.90
26503;DHT22;14177;51.520;6.764;2024-01-30T04:01:31;8.40;99.90
26503;DHT22;14177;51.520;6.764;2024-01-30T04:04:03;8.40;99.90
26503;DHT22;14177;51.520;6.764;2024-01-30T04:06:32;8.40;99.90
26503;DHT22;14177;51.520;6.764;2024-01-30T04:09:03;8.40;99.90
26503;DHT22;14177;51.520;6.764;2024-01-30T04:11:37;8.50;99.90
26503;DHT22;14177;51.520;6.764;2024-01-30T04:14:04;8.50;99.90
26503;DHT22;14177;51.520;6.764;2024-01-30T04:16:34;8.50;99.90
26503;DHT22;14177;51.520;6.764;2024-01-30T04:19:03;8.50;99.90
26503;DHT22;14177;51.520;6.764;2024-01-30T04:21:37;8.50;99.90
26503;DHT22;14177;51.520;6.764;2024-01-30T04:24:07;8.50;99.90
26503;DHT22;14177;51.520;6.764;2024-01-30T04:26:37;8.50;99.90
26503;DHT22;14177;51.520;6.764;2024-01-30T04:29:04;8.40;99.90
26503;DHT22;14177;51.520;6.764;2024-01-30T04:31:38;8.40;99.90
26503;DHT22;14177;51.520;6.764;2024-01-30T04:34:12;8.40;99.90
26503;DHT22;14177;51.520;6.764;2024-01-30T04:36:46;8.40;99.90
26503;DHT22;14177;51.520;6.764;2024-01-30T04:39:14;8.30;99.90
26503;DHT22;14177;51.520;6.764;2024-01-30T04:41:41;8.30;99.90
26503;DHT22;14177;51.520;6.764;2024-01-30T04:44:08;8.30;99.90
26503;DHT22;14177;51.520;6.764;2024-01-30T04:46:40;8.30;99.90
26503;DHT22;14177;51.520;6.764;2024-01-30T04:49:06;8.30;99.90
26503;DHT22;14177;51.520;6.764;2024-01-30T04:51:36;8.30;99.90
26503;DHT22;14177;51.520;6.764;2024-01-30T04:54:08;8.30;99.90
26503;DHT22;14177;51.520;6.764;2024-01-30T04:56:41;8.40;99.90
26503;DHT22;14177;51.520;6.764;2024-01-30T04:59:18;8.40;99.90
26503;DHT22;14177;51.520;6.764;2024-01-30T05:01:52;8.50;99.90
26503;DHT22;14177;51.520;6.764;2024-01-30T05:04:19;8.50;99.90
26503;DHT22;14177;51.520;6.764;2024-01-30T05:06:46;8.50;99.90
26503;DHT22;14177;51.520;6.764;2024-01-30T05:09:13;8.50;99.90
26503;DHT22;14177;51.520;6.764;2024-01-30T05:11:41;8.60;99.90
26503;DHT22;14177;51.520;6.764;2024-01-30T05:14:11;8.60;99.90
26503;DHT22;14177;51.520;6.764;2024-01-30T05:16:41;8.70;99.90
26503;DHT22;14177;51.520;6.764;2024-01-30T05:19:14;8.80;99.90
26503;DHT22;14177;51.520;6.764;2024-01-30T05:21:45;8.80;99.90
26503;DHT22;14177;51.520;6.764;2024-01-30T05:24:12;8.80;99.90
26503;DHT22;14177;51.520;6.764;2024-01-30T05:26:41;8.80;99.90
26503;DHT22;14177;51.520;6.764;2024-01-30T05:29:16;8.80;99.90
26503;DHT22;14177;51.520;6.764;2024-01-30T05:31:46;8.70;99.90
26503;DHT22;14177;51.520;6.764;2024-01-30T05:34:25;8.80;99.90
26503;DHT22;14177;51.520;6.764;2024-01-30T05:36:56;8.80;99.90
26503;DHT22;14177;51.520;6.764;2024-01-30T05:39:28;8.80;99.90
26503;DHT22;14177;51.520;6.764;2024-01-30T05:41:57;8.80;99.90
26503;DHT22;14177;51.520;6.764;2024-01-30T05:44:27;8.80;99.90
26503;DHT22;14177;51.520;6.764;2024-01-30T05:46:56;8.70;99.90
26503;DHT22;14177;51.520;6.764;2024-01-30T05:49:27;8.70;99.90
26503;DHT22;14177;51.520;6.764;2024-01-30T05:51:59;8.80;99.90
26503;DHT22;14177;51.520;6.764;2024-01-30T05:54:26;8.80;99.90
26503;DHT22;14177;51.520;6.764;2024-01-30T05:57:00;8.80;99.90
26503;DHT22;14177;51.520;6.764;2024-01-30T05:59:32;8.70;99.90
26503;DHT22;14177;51.520;6.764;2024-01-30T06:02:05;8.70;99.90
26503;DHT22;14177;51.520;6.764;2024-01-30T06:04:40;8.70;99.90
26503;DHT22;14177;51.520;6.764;2024-01-30T06:07:14;8.60;99.90
26503;DHT22;14177;51.520;6.764;2024-01-30T06:09:46;8.70;99.90
26503;DHT22;14177;51.520;6.764;2024-01-30T06:12:16;8.70;99.90
26503;DHT22;14177;51.520;6.764;2024-01-30T06:14:45;8.70;99.90
26503;DHT22;14177;51.520;6.764;2024-01-30T06:17:23;8.70;99.90
26503;DHT22;14177;51.520;6.764;2024-01-30T06:19:53;8.70;99.90
26503;DHT22;14177;51.520;6.764;2024-01-30T06:22:21;8.70;99.90
26503;DHT22;14177;51.520;6.764;2024-01-30T06:24:55;8.70;99.90
26503;DHT22;14177;51.520;6.764;2024-01-30T06:27:27;8.70;99.90
26503;DHT22;14177;51.520;6.764;2024-01-30T06:29:56;8.70;99.90
26503;DHT22;14177;51.520;6.764;2024-01-30T06:32:35;8.70;99.90
26503;DHT22;14177;51.520;6.764;2024-01-30T06:35:06;8.70;99.90
26503;DHT22;14177;51.520;6.764;2024-01-30T06:37:46;8.70;99.90
26503;DHT22;14177;51.520;6.764;2024-01-30T06:40:15;8.70;99.90
26503;DHT22;14177;51.520;6.764;2024-01-30T06:42:50;8.70;99.90
26503;DHT22;14177;51.520;6.764;2024-01-30T06:45:22;8.80;99.90
26503;DHT22;14177;51.520;6.764;2024-01-30T06:47:52;8.80;99.90
26503;DHT22;14177;51.520;6.764;2024-01-30T06:50:25;8.70;99.90
26503;DHT22;14177;51.520;6.764;2024-01-30T06:52:57;8.80;99.90
26503;DHT22;14177;51.520;6.764;2024-01-30T06:55:24;8.80;99.90
26503;DHT22;14177;51.520;6.764;2024-01-30T06:57:57;8.80;99.90
26503;DHT22;14177;51.520;6.764;2024-01-30T07:00:25;8.80;99.90
26503;DHT22;14177;51.520;6.764;2024-01-30T07:02:54;8.90;99.90
26503;DHT22;14177;51.520;6.764;2024-01-30T07:05:21;8.90;99.90
26503;DHT22;14177;51.520;6.764;2024-01-30T07:07:48;8.90;99.90
26503;DHT22;14177;51.520;6.764;2024-01-30T07:10:15;8.90;99.90
26503;DHT22;14177;51.520;6.764;2024-01-30T07:12:42;8.90;99.90
26503;DHT22;14177;51.520;6.764;2024-01-30T07:15:10;8.90;99.90
26503;DHT22;14177;51.520;6.764;2024-01-30T07:17:37;8.90;99.90
26503;DHT22;14177;51.520;6.764;2024-01-30T07:20:05;8.90;99.90
26503;DHT22;14177;51.520;6.764;2024-01-30T07:22:33;8.90;99.90
26503;DHT22;14177;51.520;6.764;2024-01-30T07:25:00;8.90;99.90
26503;DHT22;14177;51.520;6.764;2024-01-30T07:27:27;8.90;99.90
26503;DHT22;14177;51.520;6.764;2024-01-30T07:29:54;8.90;99.90
26503;DHT22;14177;51.520;6.764;2024-01-30T07:32:21;8.90;99.90
26503;DHT22;14177;51.520;6.764;2024-01-30T07:34:48;8.90;99.90
26503;DHT22;14177;51.520;6.764;2024-01-30T07:37:32;8.90;99.90
26503;DHT22;14177;51.520;6.764;2024-01-30T07:40:00;8.90;99.90
26503;DHT22;14177;51.520;6.764;2024-01-30T07:42:28;9.00;99.90
26503;DHT22;14177;51.520;6.764;2024-01-30T07:44:55;9.00;99.90
26503;DHT22;14177;51.520;6.764;2024-01-30T07:47:21;8.90;99.90
26503;DHT22;14177;51.520;6.764;2024-01-30T07:49:48;9.00;99.90
26503;DHT22;14177;51.520;6.764;2024-01-30T07:52:16;9.00;99.90
26503;DHT22;14177;51.520;6.764;2024-01-30T07:54:43;9.00;99.90
26503;DHT22;14177;51.520;6.764;2024-01-30T07:57:10;9.10;99.90
26503;DHT22;14177;51.520;6.764;2024-01-30T07:59:37;9.00;99.90
26503;DHT22;14177;51.520;6.764;2024-01-30T08:02:04;9.10;99.90
26503;DHT22;14177;51.520;6.764;2024-01-30T08:04:30;9.10;99.90
26503;DHT22;14177;51.520;6.764;2024-01-30T08:07:00;9.20;99.90
26503;DHT22;14177;51.520;6.764;2024-01-30T08:09:27;9.20;99.90
26503;DHT22;14177;51.520;6.764;2024-01-30T08:11:54;9.20;99.90
26503;DHT22;14177;51.520;6.764;2024-01-30T08:14:21;9.20;99.90
26503;DHT22;14177;51.520;6.764;2024-01-30T08:16:48;9.30;99.90
26503;DHT22;14177;51.520;6.764;2024-01-30T08:19:15;9.30;99.90
26503;DHT22;14177;51.520;6.764;2024-01-30T08:21:51;9.30;99.90
26503;DHT22;14177;51.520;6.764;2024-01-30T08:24:26;9.30;99.90
26503;DHT22;14177;51.520;6.764;2024-01-30T08:26:54;9.40;99.90
26503;DHT22;14177;51.520;6.764;2024-01-30T08:29:23;9.40;99.90
26503;DHT22;14177;51.520;6.764;2024-01-30T08:31:52;9.40;99.90
26503;DHT22;14177;51.520;6.764;2024-01-30T08:34:18;9.50;99.90
26503;DHT22;14177;51.520;6.764;2024-01-30T08:36:46;9.50;99.90
26503;DHT22;14177;51.520;6.764;2024-01-30T08:39:13;9.50;99.90
26503;DHT22;14177;51.520;6.764;2024-01-30T08:41:42;9.50;99.90
26503;DHT22;14177;51.520;6.764;2024-01-30T08:44:10;9.60;99.90
26503;DHT22;14177;51.520;6.764;2024-01-30T08:46:38;9.60;99.90
26503;DHT22;14177;51.520;6.764;2024-01-30T08:49:09;9.60;99.90
26503;DHT22;14177;51.520;6.764;2024-01-30T08:51:36;9.60;99.90
26503;DHT22;14177;51.520;6.764;2024-01-30T08:54:03;9.70;99.90
26503;DHT22;14177;51.520;6.764;2024-01-30T08:56:30;9.70;99.90
26503;DHT22;14177;51.520;6.764;2024-01-30T08:59:00;9.80;99.90
26503;DHT22;14177;51.520;6.764;2024-01-30T09:01:29;9.70;99.90
26503;DHT22;14177;51.520;6.764;2024-01-30T09:03:57;9.80;99.90
26503;DHT22;14177;51.520;6.764;2024-01-30T09:06:47;9.80;99.90
26503;DHT22;14177;51.520;6.764;2024-01-30T09:09:47;9.80;99.90
26503;DHT22;14177;51.520;6.764;2024-01-30T09:12:22;9.80;99.90
26503;DHT22;14177;51.520;6.764;2024-01-30T09:18:12;9.80;99.90
26503;DHT22;14177;51.520;6.764;2024-01-30T09:20:42;9.80;99.90
26503;DHT22;14177;51.520;6.764;2024-01-30T09:23:13;9.80;99.90
26503;DHT22;14177;51.520;6.764;2024-01-30T09:25:44;9.90;99.90
26503;DHT22;14177;51.520;6.764;2024-01-30T09:28:28;9.90;99.90
26503;DHT22;14177;51.520;6.764;2024-01-30T09:30:58;10.00;99.90
26503;DHT22;14177;51.520;6.764;2024-01-30T09:33:42;10.00;99.90
26503;DHT22;14177;51.520;6.764;2024-01-30T09:36:21;10.10;99.90
26503;DHT22;14177;51.520;6.764;2024-01-30T09:38:53;10.10;99.90
26503;DHT22;14177;51.520;6.764;2024-01-30T09:41:27;10.20;99.90
26503;DHT22;14177;51.520;6.764;2024-01-30T09:43:57;10.30;99.90
26503;DHT22;14177;51.520;6.764;2024-01-30T09:46:34;10.30;99.90
26503;DHT22;14177;51.520;6.764;2024-01-30T09:49:09;10.40;99.90
26503;DHT22;14177;51.520;6.764;2024-01-30T09:51:52;10.40;99.90
26503;DHT22;14177;51.520;6.764;2024-01-30T09:54:35;10.50;99.90
26503;DHT22;14177;51.520;6.764;2024-01-30T09:57:08;10.60;99.90
26503;DHT22;14177;51.520;6.764;2024-01-30T10:00:22;10.70;99.90
26503;DHT22;14177;51.520;6.764;2024-01-30T10:03:31;10.90;99.90
26503;DHT22;14177;51.520;6.764;2024-01-30T10:07:24;10.90;99.90
26503;DHT22;14177;51.520;6.764;2024-01-30T10:11:10;11.00;99.90
26503;DHT22;14177;51.520;6.764;2024-01-30T10:13:59;11.00;99.90
26503;DHT22;14177;51.520;6.764;2024-01-30T10:16:49;11.10;99.90
26503;DHT22;14177;51.520;6.764;2024-01-30T10:23:03;11.20;99.90
26503;DHT22;14177;51.520;6.764;2024-01-30T10:25:32;11.20;99.90
26503;DHT22;14177;51.520;6.764;2024-01-30T10:28:00;11.20;99.90
26503;DHT22;14177;51.520;6.764;2024-01-30T10:30:28;11.20;99.90
26503;DHT22;14177;51.520;6.764;2024-01-30T10:33:02;11.30;99.90
26503;DHT22;14177;51.520;6.764;2024-01-30T10:36:14;11.30;99.90
26503;DHT22;14177;51.520;6.764;2024-01-30T10:38:51;11.30;99.90
26503;DHT22;14177;51.520;6.764;2024-01-30T10:41:27;11.40;99.90
26503;DHT22;14177;51.520;6.764;2024-01-30T10:44:03;11.40;99.90
26503;DHT22;14177;51.520;6.764;2024-01-30T10:46:38;11.50;99.90
26503;DHT22;14177;51.520;6.764;2024-01-30T10:49:27;11.60;99.90
26503;DHT22;14177;51.520;6.764;2024-01-30T10:55:52;11.60;99.90
26503;DHT22;14177;51.520;6.764;2024-01-30T10:58:53;11.70;99.90
26503;DHT22;14177;51.520;6.764;2024-01-30T11:02:52;11.70;99.90
26503;DHT22;14177;51.520;6.764;2024-01-30T11:06:15;11.70;99.90
26503;DHT22;14177;51.520;6.764;2024-01-30T11:09:10;11.80;99.90
26503;DHT22;14177;51.520;6.764;2024-01-30T11:12:16;11.80;99.90
26503;DHT22;14177;51.520;6.764;2024-01-30T11:15:23;11.80;99.90
26503;DHT22;14177;51.520;6.764;2024-01-30T11:18:29;11.80;99.90
26503;DHT22;14177;51.520;6.764;2024-01-30T11:21:05;11.80;99.90
26503;DHT22;14177;51.520;6.764;2024-01-30T11:23:34;11.80;99.90
26503;DHT22;14177;51.520;6.764;2024-01-30T11:30:31;11.80;99.90
26503;DHT22;14177;51.520;6.764;2024-01-30T11:33:28;11.80;99.90
26503;DHT22;14177;51.520;6.764;2024-01-30T11:36:24;11.90;99.90
26503;DHT22;14177;51.520;6.764;2024-01-30T11:39:02;11.90;99.90
26503;DHT22;14177;51.520;6.764;2024-01-30T11:41:39;11.90;99.90
26503;DHT22;14177;51.520;6.764;2024-01-30T11:44:09;11.90;99.90
26503;DHT22;14177;51.520;6.764;2024-01-30T11:46:40;11.90;99.90
26503;DHT22;14177;51.520;6.764;2024-01-30T11:49:12;11.90;94.50
26503;DHT22;14177;51.520;6.764;2024-01-30T11:51:49;11.90;94.60
26503;DHT22;14177;51.520;6.764;2024-01-30T11:54:21;11.90;95.60
26503;DHT22;14177;51.520;6.764;2024-01-30T11:56:48;11.80;94.70
26503;DHT22;14177;51.520;6.764;2024-01-30T11:59:19;11.80;94.40
26503;DHT22;14177;51.520;6.764;2024-01-30T12:01:46;11.70;94.30
26503;DHT22;14177;51.520;6.764;2024-01-30T12:04:15;11.70;94.80
26503;DHT22;14177;51.520;6.764;2024-01-30T12:06:42;11.70;95.30
26503;DHT22;14177;51.520;6.764;2024-01-30T12:09:09;11.60;95.70
26503;DHT22;14177;51.520;6.764;2024-01-30T12:11:48;11.60;96.20
26503;DHT22;14177;51.520;6.764;2024-01-30T12:14:19;11.60;96.00
26503;DHT22;14177;51.520;6.764;2024-01-30T12:16:50;11.70;96.90
26503;DHT22;14177;51.520;6.764;2024-01-30T12:19:24;11.60;97.80
26503;DHT22;14177;51.520;6.764;2024-01-30T12:21:58;11.60;98.30
26503;DHT22;14177;51.520;6.764;2024-01-30T12:24:27;11.70;98.70
26503;DHT22;14177;51.520;6.764;2024-01-30T12:26:57;11.70;98.70
26503;DHT22;14177;51.520;6.764;2024-01-30T12:29:25;11.70;98.70
26503;DHT22;14177;51.520;6.764;2024-01-30T12:31:57;11.70;98.70
26503;DHT22;14177;51.520;6.764;2024-01-30T12:34:25;11.70;98.30
26503;DHT22;14177;51.520;6.764;2024-01-30T12:36:52;11.70;98.30
26503;DHT22;14177;51.520;6.764;2024-01-30T12:39:19;11.70;98.50
26503;DHT22;14177;51.520;6.764;2024-01-30T12:41:48;11.70;98.80
26503;DHT22;14177;51.520;6.764;2024-01-30T12:44:19;11.70;99.20
26503;DHT22;14177;51.520;6.764;2024-01-30T13:07:20;11.90;99.90
26503;DHT22;14177;51.520;6.764;2024-01-30T13:10:07;12.00;99.90
26503;DHT22;14177;51.520;6.764;2024-01-30T13:12:36;12.00;99.90
26503;DHT22;14177;51.520;6.764;2024-01-30T13:18:34;12.10;99.90
26503;DHT22;14177;51.520;6.764;2024-01-30T13:21:23;12.20;99.90
26503;DHT22;14177;51.520;6.764;2024-01-30T13:24:34;12.30;99.90
26503;DHT22;14177;51.520;6.764;2024-01-30T13:27:22;12.30;99.90
26503;DHT22;14177;51.520;6.764;2024-01-30T13:30:07;12.40;99.90
26503;DHT22;14177;51.520;6.764;2024-01-30T13:32:40;12.50;99.90
26503;DHT22;14177;51.520;6.764;2024-01-30T13:35:24;12.40;99.60
26503;DHT22;14177;51.520;6.764;2024-01-30T13:37:59;12.50;99.40
26503;DHT22;14177;51.520;6.764;2024-01-30T13:40:29;12.40;99.50
26503;DHT22;14177;51.520;6.764;2024-01-30T13:43:08;12.50;99.60
26503;DHT22;14177;51.520;6.764;2024-01-30T13:46:00;12.50;99.30
26503;DHT22;14177;51.520;6.764;2024-01-30T13:48:43;12.50;98.50
26503;DHT22;14177;51.520;6.764;2024-01-30T13:51:34;12.40;98.40
26503;DHT22;14177;51.520;6.764;2024-01-30T13:54:16;12.40;98.30
26503;DHT22;14177;51.520;6.764;2024-01-30T13:56:54;12.40;97.60
26503;DHT22;14177;51.520;6.764;2024-01-30T13:59:29;12.40;98.10
26503;DHT22;14177;51.520;6.764;2024-01-30T14:02:40;12.40;96.80
26503;DHT22;14177;51.520;6.764;2024-01-30T14:05:08;12.40;97.00
26503;DHT22;14177;51.520;6.764;2024-01-30T14:07:37;12.40;96.90
26503;DHT22;14177;51.520;6.764;2024-01-30T14:10:07;12.40;96.50
26503;DHT22;14177;51.520;6.764;2024-01-30T14:12:39;12.40;96.20
26503;DHT22;14177;51.520;6.764;2024-01-30T14:15:08;12.40;96.00
26503;DHT22;14177;51.520;6.764;2024-01-30T14:17:53;12.40;95.60
26503;DHT22;14177;51.520;6.764;2024-01-30T14:20:21;12.40;95.30
26503;DHT22;14177;51.520;6.764;2024-01-30T14:22:48;12.40;95.20
26503;DHT22;14177;51.520;6.764;2024-01-30T14:25:15;12.40;95.20
26503;DHT22;14177;51.520;6.764;2024-01-30T14:27:43;12.40;95.00
26503;DHT22;14177;51.520;6.764;2024-01-30T14:30:11;12.40;95.20
26503;DHT22;14177;51.520;6.764;2024-01-30T14:32:39;12.40;95.20
26503;DHT22;14177;51.520;6.764;2024-01-30T14:35:07;12.30;94.70
26503;DHT22;14177;51.520;6.764;2024-01-30T14:37:37;12.20;93.80
26503;DHT22;14177;51.520;6.764;2024-01-30T14:40:05;12.20;93.30
26503;DHT22;14177;51.520;6.764;2024-01-30T14:42:36;12.10;91.80
26503;DHT22;14177;51.520;6.764;2024-01-30T14:45:06;11.90;91.20
26503;DHT22;14177;51.520;6.764;2024-01-30T14:47:34;11.90;91.50
26503;DHT22;14177;51.520;6.764;2024-01-30T14:50:03;11.80;90.50
26503;DHT22;14177;51.520;6.764;2024-01-30T14:52:35;11.90;92.40
26503;DHT22;14177;51.520;6.764;2024-01-30T14:55:22;11.90;89.70
26503;DHT22;14177;51.520;6.764;2024-01-30T14:57:50;12.00;90.90
26503;DHT22;14177;51.520;6.764;2024-01-30T15:00:18;12.40;84.60
26503;DHT22;14177;51.520;6.764;2024-01-30T15:02:45;12.70;92.70
26503;DHT22;14177;51.520;6.764;2024-01-30T15:05:13;13.50;80.70
26503;DHT22;14177;51.520;6.764;2024-01-30T15:07:41;14.50;69.80
26503;DHT22;14177;51.520;6.764;2024-01-30T15:10:09;15.20;39.70
26503;DHT22;14177;51.520;6.764;2024-01-30T15:12:37;15.50;51.50
26503;DHT22;14177;51.520;6.764;2024-01-30T15:15:07;15.80;32.40
26503;DHT22;14177;51.520;6.764;2024-01-30T15:17:36;15.40;22.90
26503;DHT22;14177;51.520;6.764;2024-01-30T15:20:04;16.10;28.60
26503;DHT22;14177;51.520;6.764;2024-01-30T15:22:31;16.00;23.30
26503;DHT22;14177;51.520;6.764;2024-01-30T15:24:58;15.50;19.20
26503;DHT22;14177;51.520;6.764;2024-01-30T15:27:26;15.80;28.00
26503;DHT22;14177;51.520;6.764;2024-01-30T15:29:56;15.30;24.00
26503;DHT22;14177;51.520;6.764;2024-01-30T15:32:23;15.10;19.40
26503;DHT22;14177;51.520;6.764;2024-01-30T15:34:50;14.30;18.70
26503;DHT22;14177;51.520;6.764;2024-01-30T15:37:17;14.00;32.30
26503;DHT22;14177;51.520;6.764;2024-01-30T15:39:44;14.30;43.70
26503;DHT22;14177;51.520;6.764;2024-01-30T15:42:11;14.30;21.40
26503;DHT22;14177;51.520;6.764;2024-01-30T15:44:39;13.60;26.80
26503;DHT22;14177;51.520;6.764;2024-01-30T15:47:05;13.00;36.70
26503;DHT22;14177;51.520;6.764;2024-01-30T15:49:32;12.50;45.70
26503;DHT22;14177;51.520;6.764;2024-01-30T15:51:59;12.10;52.80
26503;DHT22;14177;51.520;6.764;2024-01-30T15:54:27;11.80;59.00
26503;DHT22;14177;51.520;6.764;2024-01-30T15:56:54;11.50;62.90
26503;DHT22;14177;51.520;6.764;2024-01-30T15:59:21;11.30;66.50
26503;DHT22;14177;51.520;6.764;2024-01-30T16:01:48;11.20;68.80
26503;DHT22;14177;51.520;6.764;2024-01-30T16:04:16;11.10;70.00
26503;DHT22;14177;51.520;6.764;2024-01-30T16:06:43;10.90;72.80
26503;DHT22;14177;51.520;6.764;2024-01-30T16:09:10;10.80;73.30
26503;DHT22;14177;51.520;6.764;2024-01-30T16:11:37;10.80;72.10
26503;DHT22;14177;51.520;6.764;2024-01-30T16:14:05;10.70;73.60
26503;DHT22;14177;51.520;6.764;2024-01-30T16:16:34;10.70;76.10
26503;DHT22;14177;51.520;6.764;2024-01-30T16:19:01;10.80;73.50
26503;DHT22;14177;51.520;6.764;2024-01-30T16:21:28;10.80;74.30
26503;DHT22;14177;51.520;6.764;2024-01-30T16:23:55;10.80;73.50
26503;DHT22;14177;51.520;6.764;2024-01-30T16:26:22;10.80;74.20
26503;DHT22;14177;51.520;6.764;2024-01-30T16:28:49;10.80;73.20
26503;DHT22;14177;51.520;6.764;2024-01-30T16:31:16;10.80;73.40
26503;DHT22;14177;51.520;6.764;2024-01-30T16:33:47;10.80;74.50
26503;DHT22;14177;51.520;6.764;2024-01-30T16:36:21;10.80;74.80
26503;DHT22;14177;51.520;6.764;2024-01-30T16:43:39;10.70;72.90
26503;DHT22;14177;51.520;6.764;2024-01-30T16:51:18;10.70;73.80
26503;DHT22;14177;51.520;6.764;2024-01-30T16:54:30;10.70;70.50
26503;DHT22;14177;51.520;6.764;2024-01-30T16:56:58;10.70;70.50
26503;DHT22;14177;51.520;6.764;2024-01-30T16:59:30;10.70;71.00
26503;DHT22;14177;51.520;6.764;2024-01-30T17:02:43;10.60;71.30
26503;DHT22;14177;51.520;6.764;2024-01-30T17:06:29;10.60;76.50